createdAt,value
2018-07-26T00:00:13.902Z,23.08
2018-07-26T00:01:14.079Z,23.15
2018-07-26T00:02:14.255Z,23.06
2018-07-26T00:03:14.440Z,23.13
2018-07-26T00:04:14.614Z,23.21
2018-07-26T00:05:14.801Z,23.24
2018-07-26T00:06:14.978Z,23.13
2018-07-26T00:07:15.154Z,23.08
2018-07-26T00:08:15.350Z,22.96
2018-07-26T00:09:15.516Z,22.93
2018-07-26T00:10:15.697Z,22.88
2018-07-26T00:11:15.870Z,22.93
2018-07-26T00:12:17.556Z,22.93
2018-07-26T00:13:16.727Z,22.91
2018-07-26T00:14:16.279Z,22.85
2018-07-26T00:15:16.454Z,22.81
2018-07-26T00:16:16.636Z,22.88
2018-07-26T00:17:16.812Z,22.76
2018-07-26T00:18:16.998Z,22.85
2018-07-26T00:19:17.182Z,22.87
2018-07-26T00:20:17.356Z,22.78
2018-07-26T00:21:17.537Z,22.75
2018-07-26T00:22:17.716Z,22.75
2018-07-26T00:23:17.893Z,22.76
2018-07-26T00:24:18.077Z,22.75
2018-07-26T00:25:18.250Z,22.70
2018-07-26T00:26:18.427Z,22.78
2018-07-26T00:27:18.610Z,22.70
2018-07-26T00:28:18.787Z,22.73
2018-07-26T00:29:18.965Z,22.68
2018-07-26T00:30:19.150Z,22.62
2018-07-26T00:31:19.331Z,22.57
2018-07-26T00:32:19.533Z,22.60
2018-07-26T00:33:19.725Z,22.63
2018-07-26T00:34:19.902Z,22.65
2018-07-26T00:35:20.081Z,22.68
2018-07-26T00:36:20.263Z,22.57
2018-07-26T00:37:20.437Z,22.60
2018-07-26T00:38:20.619Z,22.59
2018-07-26T00:39:20.798Z,22.57
2018-07-26T00:40:20.979Z,22.62
2018-07-26T00:41:21.184Z,22.53
2018-07-26T00:42:21.350Z,22.51
2018-07-26T00:43:21.529Z,22.54
2018-07-26T00:44:21.707Z,22.51
2018-07-26T00:45:21.891Z,22.55
2018-07-26T00:46:22.074Z,22.43
2018-07-26T00:47:22.256Z,22.51
2018-07-26T00:48:22.436Z,22.45
2018-07-26T00:49:22.616Z,22.43
2018-07-26T00:50:22.791Z,22.41
2018-07-26T00:51:22.972Z,22.41
2018-07-26T00:52:23.163Z,22.44
2018-07-26T00:53:23.342Z,22.39
2018-07-26T00:54:23.521Z,22.32
2018-07-26T00:55:23.705Z,22.29
2018-07-26T00:56:23.905Z,22.23
2018-07-26T00:57:24.085Z,22.28
2018-07-26T00:58:24.273Z,22.23
2018-07-26T00:59:24.461Z,22.22
2018-07-26T01:00:24.634Z,22.18
2018-07-26T01:01:24.815Z,22.13
2018-07-26T01:02:24.990Z,22.18
2018-07-26T01:03:25.175Z,22.17
2018-07-26T01:04:25.342Z,22.18
2018-07-26T01:05:25.520Z,22.15
2018-07-26T01:06:25.705Z,22.20
2018-07-26T01:07:25.886Z,22.04
2018-07-26T01:08:26.066Z,22.15
2018-07-26T01:09:26.263Z,22.13
2018-07-26T01:10:26.422Z,22.11
2018-07-26T01:11:26.597Z,22.02
2018-07-26T01:12:26.774Z,21.96
2018-07-26T01:13:26.963Z,21.99
2018-07-26T01:14:27.141Z,22.06
2018-07-26T01:15:27.322Z,21.96
2018-07-26T01:16:27.515Z,21.99
2018-07-26T01:17:27.692Z,21.93
2018-07-26T01:18:27.863Z,21.91
2018-07-26T01:19:28.051Z,21.88
2018-07-26T01:20:28.239Z,21.88
2018-07-26T01:21:28.413Z,21.99
2018-07-26T01:22:28.589Z,21.88
2018-07-26T01:23:28.771Z,21.88
2018-07-26T01:24:28.949Z,21.85
2018-07-26T01:25:29.123Z,21.83
2018-07-26T01:26:29.292Z,21.80
2018-07-26T01:27:29.473Z,21.83
2018-07-26T01:28:29.655Z,21.69
2018-07-26T01:29:29.834Z,21.72
2018-07-26T01:30:30.017Z,21.70
2018-07-26T01:31:30.194Z,21.66
2018-07-26T01:32:30.368Z,21.67
2018-07-26T01:33:30.544Z,21.60
2018-07-26T01:34:30.722Z,21.62
2018-07-26T01:35:30.903Z,21.64
2018-07-26T01:36:31.078Z,21.70
2018-07-26T01:37:31.258Z,21.67
2018-07-26T01:38:31.435Z,21.66
2018-07-26T01:39:36.686Z,21.62
2018-07-26T01:40:33.667Z,21.70
2018-07-26T01:41:34.327Z,21.64
2018-07-26T01:42:33.066Z,21.66
2018-07-26T01:43:32.257Z,21.64
2018-07-26T01:44:32.438Z,21.69
2018-07-26T01:45:32.615Z,21.61
2018-07-26T01:46:32.793Z,21.70
2018-07-26T01:47:32.978Z,21.70
2018-07-26T01:48:33.160Z,21.60
2018-07-26T01:49:33.344Z,21.69
2018-07-26T01:50:33.520Z,21.61
2018-07-26T01:51:33.700Z,21.54
2018-07-26T01:52:33.880Z,21.51
2018-07-26T01:53:34.053Z,21.48
2018-07-26T01:54:34.228Z,21.54
2018-07-26T01:55:34.411Z,21.39
2018-07-26T01:56:34.586Z,21.46
2018-07-26T01:57:34.762Z,21.48
2018-07-26T01:58:34.939Z,21.30
2018-07-26T01:59:35.116Z,21.36
2018-07-26T02:00:35.296Z,21.45
2018-07-26T02:01:35.472Z,21.36
2018-07-26T02:02:35.648Z,21.37
2018-07-26T02:03:35.823Z,21.33
2018-07-26T02:04:36.007Z,21.25
2018-07-26T02:05:36.179Z,21.25
2018-07-26T02:06:36.357Z,21.27
2018-07-26T02:07:36.528Z,21.27
2018-07-26T02:08:36.707Z,21.32
2018-07-26T02:09:36.890Z,21.22
2018-07-26T02:10:37.063Z,21.21
2018-07-26T02:11:37.248Z,21.25
2018-07-26T02:12:37.434Z,21.30
2018-07-26T02:13:37.611Z,21.25
2018-07-26T02:14:37.790Z,21.27
2018-07-26T02:15:37.971Z,21.29
2018-07-26T02:16:38.148Z,21.27
2018-07-26T02:17:38.326Z,21.25
2018-07-26T02:18:38.505Z,21.25
2018-07-26T02:19:38.692Z,21.24
2018-07-26T02:20:38.875Z,21.21
2018-07-26T02:21:39.046Z,21.30
2018-07-26T02:22:39.231Z,21.22
2018-07-26T02:23:39.399Z,21.21
2018-07-26T02:24:39.579Z,21.18
2018-07-26T02:25:39.755Z,21.22
2018-07-26T02:26:39.933Z,21.30
2018-07-26T02:27:40.109Z,21.29
2018-07-26T02:28:40.290Z,21.20
2018-07-26T02:29:40.468Z,21.25
2018-07-26T02:30:40.646Z,21.25
2018-07-26T02:31:42.241Z,21.27
2018-07-26T02:32:42.805Z,21.21
2018-07-26T02:33:41.853Z,21.20
2018-07-26T02:34:43.305Z,21.21
2018-07-26T02:35:46.489Z,21.18
2018-07-26T02:36:43.490Z,21.12
2018-07-26T02:37:41.918Z,21.15
2018-07-26T02:38:42.100Z,21.11
2018-07-26T02:39:42.280Z,20.97
2018-07-26T02:40:42.464Z,21.07
2018-07-26T02:41:42.641Z,21.06
2018-07-26T02:42:42.817Z,21.09
2018-07-26T02:43:43.024Z,21.05
2018-07-26T02:44:43.175Z,21.05
2018-07-26T02:45:43.353Z,20.97
2018-07-26T02:46:43.526Z,20.90
2018-07-26T02:47:43.705Z,20.85
2018-07-26T02:48:43.880Z,20.96
2018-07-26T02:49:44.057Z,20.88
2018-07-26T02:50:44.243Z,20.88
2018-07-26T02:51:44.441Z,20.82
2018-07-26T02:52:44.607Z,20.84
2018-07-26T02:53:44.780Z,20.74
2018-07-26T02:54:44.955Z,20.65
2018-07-26T02:55:45.134Z,20.69
2018-07-26T02:56:45.305Z,20.70
2018-07-26T02:57:45.491Z,20.72
2018-07-26T02:58:45.662Z,20.69
2018-07-26T02:59:45.842Z,20.75
2018-07-26T03:00:46.021Z,20.70
2018-07-26T03:01:46.192Z,20.59
2018-07-26T03:02:46.371Z,20.56
2018-07-26T03:03:46.544Z,20.56
2018-07-26T03:04:46.722Z,20.58
2018-07-26T03:05:46.909Z,20.58
2018-07-26T03:06:47.080Z,20.55
2018-07-26T03:07:47.258Z,20.62
2018-07-26T03:08:47.442Z,20.59
2018-07-26T03:09:47.619Z,20.52
2018-07-26T03:10:47.798Z,20.59
2018-07-26T03:11:47.980Z,20.50
2018-07-26T03:12:48.153Z,20.52
2018-07-26T03:13:48.356Z,20.51
2018-07-26T03:14:48.505Z,20.50
2018-07-26T03:15:48.679Z,20.41
2018-07-26T03:16:48.852Z,20.41
2018-07-26T03:17:49.029Z,20.41
2018-07-26T03:18:49.205Z,20.41
2018-07-26T03:19:49.381Z,20.47
2018-07-26T03:20:49.589Z,20.40
2018-07-26T03:21:49.744Z,20.26
2018-07-26T03:22:49.932Z,20.39
2018-07-26T03:23:50.112Z,20.37
2018-07-26T03:24:50.291Z,20.28
2018-07-26T03:25:50.470Z,20.29
2018-07-26T03:26:50.646Z,20.31
2018-07-26T03:27:50.826Z,20.19
2018-07-26T03:28:51.004Z,20.19
2018-07-26T03:29:51.183Z,20.11
2018-07-26T03:30:51.367Z,20.11
2018-07-26T03:31:51.548Z,20.22
2018-07-26T03:32:51.726Z,20.09
2018-07-26T03:33:51.900Z,20.11
2018-07-26T03:34:52.080Z,20.11
2018-07-26T03:35:52.258Z,20.10
2018-07-26T03:36:52.432Z,20.04
2018-07-26T03:37:52.608Z,20.00
2018-07-26T03:38:52.791Z,20.03
2018-07-26T03:39:52.967Z,19.99
2018-07-26T03:40:53.148Z,20.02
2018-07-26T03:41:53.323Z,20.00
2018-07-26T03:42:53.515Z,19.99
2018-07-26T03:43:53.694Z,20.11
2018-07-26T03:44:53.875Z,20.04
2018-07-26T03:45:54.047Z,20.04
2018-07-26T03:46:54.227Z,20.07
2018-07-26T03:47:54.442Z,20.04
2018-07-26T03:48:54.623Z,20.03
2018-07-26T03:49:54.802Z,20.09
2018-07-26T03:50:54.977Z,20.06
2018-07-26T03:51:55.167Z,20.13
2018-07-26T03:52:58.338Z,20.07
2018-07-26T03:53:57.759Z,20.06
2018-07-26T03:55:00.075Z,20.09
2018-07-26T03:55:59.317Z,20.02
2018-07-26T03:56:58.768Z,19.96
2018-07-26T03:57:57.758Z,19.99
2018-07-26T03:58:58.040Z,19.95
2018-07-26T03:59:57.863Z,19.99
2018-07-26T04:00:58.203Z,20.00
2018-07-26T04:01:58.824Z,19.91
2018-07-26T04:02:59.960Z,19.94
2018-07-26T04:03:59.757Z,19.94
2018-07-26T04:04:57.434Z,19.96
2018-07-26T04:05:57.611Z,19.91
2018-07-26T04:06:57.809Z,20.06
2018-07-26T04:07:57.975Z,19.96
2018-07-26T04:08:58.965Z,19.88
2018-07-26T04:10:01.267Z,20.02
2018-07-26T04:11:00.172Z,20.02
2018-07-26T04:12:01.859Z,20.06
2018-07-26T04:12:58.882Z,20.04
2018-07-26T04:13:59.690Z,20.04
2018-07-26T04:14:59.201Z,20.07
2018-07-26T04:15:59.397Z,20.14
2018-07-26T04:16:59.595Z,20.07
2018-07-26T04:17:59.821Z,20.03
2018-07-26T04:19:00.017Z,20.14
2018-07-26T04:20:00.225Z,20.19
2018-07-26T04:21:00.379Z,20.19
2018-07-26T04:22:00.561Z,20.32
2018-07-26T04:23:00.764Z,20.41
2018-07-26T04:24:00.914Z,20.34
2018-07-26T04:25:01.111Z,20.31
2018-07-26T04:26:01.331Z,20.39
2018-07-26T04:27:01.946Z,20.40
2018-07-26T04:28:01.574Z,20.41
2018-07-26T04:29:01.815Z,20.41
2018-07-26T04:30:01.978Z,20.48
2018-07-26T04:31:02.172Z,20.47
2018-07-26T04:32:02.448Z,20.47
2018-07-26T04:33:02.536Z,20.37
2018-07-26T04:34:02.740Z,20.31
2018-07-26T04:35:02.951Z,20.22
2018-07-26T04:36:03.098Z,20.21
2018-07-26T04:37:03.276Z,20.19
2018-07-26T04:38:03.466Z,20.11
2018-07-26T04:39:03.658Z,20.04
2018-07-26T04:40:03.842Z,20.02
2018-07-26T04:41:04.024Z,20.00
2018-07-26T04:42:04.203Z,20.06
2018-07-26T04:43:04.430Z,20.09
2018-07-26T04:44:04.550Z,20.18
2018-07-26T04:45:04.724Z,20.16
2018-07-26T04:46:04.908Z,20.13
2018-07-26T04:47:05.084Z,20.09
2018-07-26T04:48:05.259Z,20.14
2018-07-26T04:49:05.438Z,20.09
2018-07-26T04:50:05.613Z,20.10
2018-07-26T04:51:05.786Z,20.10
2018-07-26T04:52:05.977Z,20.10
2018-07-26T04:53:06.161Z,20.13
2018-07-26T04:54:06.336Z,20.18
2018-07-26T04:55:06.507Z,20.16
2018-07-26T04:56:06.916Z,20.18
2018-07-26T04:57:10.446Z,20.24
2018-07-26T04:58:09.193Z,20.22
2018-07-26T04:59:09.192Z,20.32
2018-07-26T05:00:07.504Z,20.44
2018-07-26T05:01:11.115Z,20.44
2018-07-26T05:02:07.533Z,20.56
2018-07-26T05:03:07.716Z,20.58
2018-07-26T05:04:07.892Z,20.58
2018-07-26T05:05:08.074Z,20.69
2018-07-26T05:06:08.268Z,20.84
2018-07-26T05:07:08.440Z,20.90
2018-07-26T05:08:08.654Z,20.95
2018-07-26T05:09:08.811Z,20.92
2018-07-26T05:10:09.006Z,21.02
2018-07-26T05:11:09.181Z,21.09
2018-07-26T05:12:09.359Z,21.11
2018-07-26T05:13:09.657Z,21.27
2018-07-26T05:14:09.712Z,21.33
2018-07-26T05:15:09.906Z,21.45
2018-07-26T05:16:10.420Z,21.54
2018-07-26T05:17:10.297Z,21.55
2018-07-26T05:18:10.566Z,21.73
2018-07-26T05:19:14.069Z,21.79
2018-07-26T05:20:11.927Z,21.88
2018-07-26T05:21:12.483Z,21.88
2018-07-26T05:22:11.349Z,21.99
2018-07-26T05:23:11.609Z,22.08
2018-07-26T05:24:12.801Z,22.11
2018-07-26T05:25:11.703Z,22.11
2018-07-26T05:26:11.599Z,22.17
2018-07-26T05:27:11.847Z,22.20
2018-07-26T05:28:11.841Z,22.30
2018-07-26T05:29:11.926Z,22.33
2018-07-26T05:30:12.241Z,22.33
2018-07-26T05:31:13.285Z,22.39
2018-07-26T05:32:12.464Z,22.47
2018-07-26T05:33:12.657Z,22.57
2018-07-26T05:34:12.843Z,22.54
2018-07-26T05:35:13.039Z,22.53
2018-07-26T05:36:13.204Z,22.69
2018-07-26T05:37:13.381Z,22.63
2018-07-26T05:38:13.557Z,22.76
2018-07-26T05:39:13.734Z,22.93
2018-07-26T05:40:13.913Z,22.96
2018-07-26T05:41:14.103Z,22.98
2018-07-26T05:42:14.266Z,22.99
2018-07-26T05:43:14.488Z,23.17
2018-07-26T05:44:14.627Z,23.28
2018-07-26T05:45:14.805Z,23.36
2018-07-26T05:46:14.994Z,23.48
2018-07-26T05:47:15.177Z,23.58
2018-07-26T05:48:15.360Z,23.62
2018-07-26T05:49:15.538Z,23.74
2018-07-26T05:50:15.711Z,23.88
2018-07-26T05:51:15.896Z,23.77
2018-07-26T05:52:16.071Z,23.76
2018-07-26T05:53:16.302Z,23.87
2018-07-26T05:54:16.451Z,23.86
2018-07-26T05:55:16.638Z,23.96
2018-07-26T05:56:16.828Z,24.08
2018-07-26T05:57:17.007Z,24.16
2018-07-26T05:58:17.204Z,24.23
2018-07-26T05:59:17.361Z,24.23
2018-07-26T06:00:17.547Z,24.36
2018-07-26T06:01:17.724Z,24.45
2018-07-26T06:02:17.901Z,24.50
2018-07-26T06:03:18.082Z,24.58
2018-07-26T06:04:18.335Z,24.77
2018-07-26T06:05:18.541Z,24.78
2018-07-26T06:06:18.671Z,24.89
2018-07-26T06:07:18.859Z,24.88
2018-07-26T06:08:19.031Z,24.96
2018-07-26T06:09:19.213Z,25.08
2018-07-26T06:10:19.390Z,25.28
2018-07-26T06:11:19.567Z,25.40
2018-07-26T06:12:19.750Z,25.54
2018-07-26T06:13:19.927Z,25.63
2018-07-26T06:14:20.114Z,25.70
2018-07-26T06:15:20.314Z,25.85
2018-07-26T06:16:20.504Z,26.02
2018-07-26T06:17:20.691Z,26.06
2018-07-26T06:18:20.891Z,26.21
2018-07-26T06:19:21.070Z,26.31
2018-07-26T06:20:21.257Z,26.33
2018-07-26T06:21:21.444Z,26.63
2018-07-26T06:22:21.635Z,26.90
2018-07-26T06:23:21.824Z,27.20
2018-07-26T06:24:22.010Z,27.55
2018-07-26T06:25:22.198Z,28.04
2018-07-26T06:26:22.382Z,28.41
2018-07-26T06:27:22.572Z,28.85
2018-07-26T06:28:22.825Z,29.23
2018-07-26T06:29:22.947Z,29.68
2018-07-26T06:30:26.128Z,30.10
2018-07-26T06:31:23.329Z,30.48
2018-07-26T06:32:23.516Z,30.96
2018-07-26T06:33:23.753Z,31.22
2018-07-26T06:34:23.934Z,31.77
2018-07-26T06:35:24.121Z,32.18
2018-07-26T06:36:24.306Z,32.82
2018-07-26T06:37:24.491Z,33.07
2018-07-26T06:38:24.680Z,33.50
2018-07-26T06:39:24.901Z,33.83
2018-07-26T06:40:27.575Z,34.11
2018-07-26T06:41:25.325Z,34.03
2018-07-26T06:42:25.595Z,34.54
2018-07-26T06:43:25.655Z,34.66
2018-07-26T06:44:25.850Z,35.04
2018-07-26T06:45:26.042Z,35.14
2018-07-26T06:46:26.260Z,35.41
2018-07-26T06:47:26.461Z,35.67
2018-07-26T06:48:26.658Z,35.92
2018-07-26T06:49:27.061Z,36.09
2018-07-26T06:50:27.396Z,36.30
2018-07-26T06:51:27.521Z,36.57
2018-07-26T06:52:27.631Z,36.62
2018-07-26T06:53:27.673Z,36.80
2018-07-26T06:54:27.890Z,37.13
2018-07-26T06:55:28.039Z,37.37
2018-07-26T06:56:28.256Z,37.63
2018-07-26T06:57:28.791Z,37.83
2018-07-26T06:58:28.627Z,37.87
2018-07-26T06:59:28.822Z,37.87
2018-07-26T07:00:29.029Z,37.86
2018-07-26T07:01:29.237Z,37.83
2018-07-26T07:02:29.434Z,37.82
2018-07-26T07:03:29.634Z,38.09
2018-07-26T07:04:29.847Z,38.24
2018-07-26T07:05:30.044Z,38.49
2018-07-26T07:06:30.245Z,38.49
2018-07-26T07:07:30.432Z,38.61
2018-07-26T07:08:30.629Z,38.87
2018-07-26T07:09:30.814Z,39.02
2018-07-26T07:10:31.032Z,39.06
2018-07-26T07:11:31.227Z,39.11
2018-07-26T07:12:31.411Z,39.14
2018-07-26T07:13:31.602Z,39.30
2018-07-26T07:14:31.793Z,39.33
2018-07-26T07:15:31.978Z,39.03
2018-07-26T07:16:32.172Z,38.84
2018-07-26T07:17:32.364Z,39.14
2018-07-26T07:18:32.556Z,39.58
2018-07-26T07:19:32.746Z,39.56
2018-07-26T07:20:32.954Z,39.86
2018-07-26T07:21:33.125Z,40.34
2018-07-26T07:22:33.310Z,40.53
2018-07-26T07:23:33.498Z,40.78
2018-07-26T07:24:33.689Z,41.16
2018-07-26T07:25:33.877Z,41.63
2018-07-26T07:26:34.093Z,41.65
2018-07-26T07:27:34.277Z,41.29
2018-07-26T07:28:34.468Z,41.22
2018-07-26T07:29:34.657Z,41.47
2018-07-26T07:30:34.851Z,41.70
2018-07-26T07:31:35.044Z,42.29
2018-07-26T07:32:35.232Z,42.86
2018-07-26T07:33:35.428Z,42.72
2018-07-26T07:34:35.637Z,43.38
2018-07-26T07:35:35.844Z,43.58
2018-07-26T07:36:36.106Z,43.96
2018-07-26T07:37:36.162Z,44.20
2018-07-26T07:38:36.361Z,44.29
2018-07-26T07:39:36.552Z,44.33
2018-07-26T07:40:36.749Z,44.34
2018-07-26T07:41:37.002Z,44.32
2018-07-26T07:42:37.076Z,44.36
2018-07-26T07:43:37.277Z,44.61
2018-07-26T07:44:37.474Z,44.81
2018-07-26T07:45:37.982Z,45.27
2018-07-26T07:46:37.925Z,45.09
2018-07-26T07:47:37.980Z,45.02
2018-07-26T07:48:38.222Z,45.03
2018-07-26T07:49:38.293Z,44.96
2018-07-26T07:50:38.489Z,45.22
2018-07-26T07:51:38.733Z,45.37
2018-07-26T07:52:39.060Z,44.91
2018-07-26T07:53:39.122Z,44.93
2018-07-26T07:54:39.323Z,44.97
2018-07-26T07:55:39.514Z,45.25
2018-07-26T07:56:39.705Z,45.48
2018-07-26T07:57:39.898Z,46.07
2018-07-26T07:58:40.096Z,46.26
2018-07-26T07:59:40.295Z,46.23
2018-07-26T08:00:40.482Z,46.27
2018-07-26T08:01:40.691Z,46.41
2018-07-26T08:02:40.894Z,46.26
2018-07-26T08:03:41.081Z,45.87
2018-07-26T08:04:41.275Z,46.00
2018-07-26T08:05:41.476Z,46.26
2018-07-26T08:06:41.709Z,46.82
2018-07-26T08:07:41.864Z,47.03
2018-07-26T08:08:42.053Z,47.17
2018-07-26T08:09:42.264Z,47.29
2018-07-26T08:10:42.453Z,47.23
2018-07-26T08:11:42.656Z,47.18
2018-07-26T08:12:42.908Z,46.94
2018-07-26T08:13:43.069Z,47.13
2018-07-26T08:14:43.588Z,47.07
2018-07-26T08:15:44.438Z,47.17
2018-07-26T08:16:46.552Z,47.11
2018-07-26T08:17:43.722Z,46.96
2018-07-26T08:18:43.917Z,46.98
2018-07-26T08:19:44.113Z,47.08
2018-07-26T08:20:44.308Z,47.13
2018-07-26T08:21:44.502Z,47.17
2018-07-26T08:22:44.701Z,47.22
2018-07-26T08:23:44.909Z,47.58
2018-07-26T08:24:45.091Z,47.65
2018-07-26T08:25:45.276Z,47.83
2018-07-26T08:26:45.475Z,48.17
2018-07-26T08:27:45.674Z,48.31
2018-07-26T08:28:49.390Z,48.71
2018-07-26T08:29:46.025Z,49.06
2018-07-26T08:30:46.209Z,49.35
2018-07-26T08:31:46.404Z,49.29
2018-07-26T08:32:46.613Z,49.11
2018-07-26T08:33:46.802Z,49.14
2018-07-26T08:34:47.005Z,49.14
2018-07-26T08:35:47.203Z,48.71
2018-07-26T08:36:47.395Z,48.33
2018-07-26T08:37:47.593Z,48.05
2018-07-26T08:38:47.803Z,47.83
2018-07-26T08:39:47.993Z,48.09
2018-07-26T08:40:48.203Z,48.07
2018-07-26T08:41:49.209Z,47.77
2018-07-26T08:42:49.002Z,47.96
2018-07-26T08:43:48.703Z,47.93
2018-07-26T08:44:49.373Z,48.18
2018-07-26T08:45:49.095Z,48.06
2018-07-26T08:46:49.263Z,47.54
2018-07-26T08:47:49.459Z,47.20
2018-07-26T08:48:49.652Z,46.85
2018-07-26T08:49:49.909Z,46.41
2018-07-26T08:50:49.979Z,46.10
2018-07-26T08:51:50.203Z,45.84
2018-07-26T08:52:50.415Z,45.62
2018-07-26T08:53:50.598Z,45.41
2018-07-26T08:54:50.799Z,45.10
2018-07-26T08:55:51.006Z,44.59
2018-07-26T08:56:51.215Z,44.79
2018-07-26T08:57:52.051Z,44.88
2018-07-26T08:58:51.581Z,44.86
2018-07-26T08:59:52.177Z,44.58
2018-07-26T09:00:52.010Z,44.67
2018-07-26T09:01:52.210Z,44.78
2018-07-26T09:02:52.453Z,45.05
2018-07-26T09:03:54.729Z,44.93
2018-07-26T09:04:54.005Z,44.90
2018-07-26T09:05:54.304Z,44.68
2018-07-26T09:06:54.527Z,44.64
2018-07-26T09:07:53.412Z,44.72
2018-07-26T09:08:53.601Z,44.67
2018-07-26T09:09:53.822Z,44.81
2018-07-26T09:10:54.015Z,44.90
2018-07-26T09:11:54.174Z,45.13
2018-07-26T09:12:55.239Z,45.24
2018-07-26T09:13:54.603Z,45.10
2018-07-26T09:14:54.835Z,45.24
2018-07-26T09:15:54.975Z,45.18
2018-07-26T09:16:55.255Z,45.20
2018-07-26T09:17:55.458Z,45.05
2018-07-26T09:18:56.266Z,45.06
2018-07-26T09:19:55.752Z,45.37
2018-07-26T09:20:56.018Z,45.37
2018-07-26T09:21:56.087Z,45.34
2018-07-26T09:22:56.292Z,45.47
2018-07-26T09:23:56.485Z,45.37
2018-07-26T09:24:56.674Z,45.12
2018-07-26T09:25:56.864Z,45.35
2018-07-26T09:26:57.060Z,45.39
2018-07-26T09:27:57.256Z,45.48
2018-07-26T09:28:57.474Z,45.85
2018-07-26T09:29:57.654Z,45.89
2018-07-26T09:30:57.849Z,45.75
2018-07-26T09:31:58.097Z,45.50
2018-07-26T09:32:58.237Z,45.69
2018-07-26T09:33:59.394Z,45.70
2018-07-26T09:34:58.620Z,45.81
2018-07-26T09:35:58.801Z,45.85
2018-07-26T09:36:58.996Z,45.92
2018-07-26T09:37:59.209Z,45.92
2018-07-26T09:38:59.407Z,46.04
2018-07-26T09:40:00.359Z,45.94
2018-07-26T09:41:00.878Z,46.08
2018-07-26T09:42:00.112Z,46.35
2018-07-26T09:43:01.072Z,46.50
2018-07-26T09:44:00.811Z,46.74
2018-07-26T09:45:00.501Z,46.95
2018-07-26T09:46:01.747Z,46.31
2018-07-26T09:47:01.064Z,46.39
2018-07-26T09:48:01.738Z,46.41
2018-07-26T09:49:01.561Z,46.50
2018-07-26T09:50:01.419Z,46.80
2018-07-26T09:51:01.612Z,46.99
2018-07-26T09:52:01.816Z,46.89
2018-07-26T09:53:02.006Z,47.01
2018-07-26T09:54:04.772Z,47.06
2018-07-26T09:55:02.453Z,46.94
2018-07-26T09:56:02.635Z,46.96
2018-07-26T09:57:02.831Z,47.20
2018-07-26T09:58:03.020Z,47.41
2018-07-26T09:59:03.209Z,47.25
2018-07-26T10:00:03.403Z,47.26
2018-07-26T10:01:03.618Z,47.13
2018-07-26T10:02:03.823Z,47.30
2018-07-26T10:03:04.015Z,47.30
2018-07-26T10:04:04.205Z,47.36
2018-07-26T10:05:04.402Z,47.23
2018-07-26T10:06:04.981Z,47.29
2018-07-26T10:07:04.811Z,47.44
2018-07-26T10:08:05.005Z,47.66
2018-07-26T10:09:06.292Z,47.29
2018-07-26T10:10:05.366Z,47.33
2018-07-26T10:11:05.558Z,47.01
2018-07-26T10:12:05.771Z,46.58
2018-07-26T10:13:05.964Z,46.69
2018-07-26T10:14:06.197Z,46.92
2018-07-26T10:15:06.417Z,47.06
2018-07-26T10:16:06.582Z,46.85
2018-07-26T10:17:06.780Z,46.82
2018-07-26T10:18:06.990Z,46.98
2018-07-26T10:19:07.196Z,46.98
2018-07-26T10:20:07.414Z,46.98
2018-07-26T10:21:07.598Z,46.95
2018-07-26T10:22:14.044Z,47.01
2018-07-26T10:23:08.533Z,47.44
2018-07-26T10:24:08.240Z,47.72
2018-07-26T10:25:08.455Z,48.17
2018-07-26T10:26:08.685Z,48.02
2018-07-26T10:27:08.894Z,48.03
2018-07-26T10:28:09.101Z,47.52
2018-07-26T10:29:09.379Z,47.41
2018-07-26T10:30:09.466Z,46.92
2018-07-26T10:31:09.655Z,46.98
2018-07-26T10:32:09.847Z,47.07
2018-07-26T10:33:10.032Z,47.15
2018-07-26T10:34:10.227Z,47.01
2018-07-26T10:35:10.434Z,47.15
2018-07-26T10:36:10.623Z,46.89
2018-07-26T10:37:10.828Z,47.08
2018-07-26T10:38:11.275Z,46.79
2018-07-26T10:39:11.214Z,46.99
2018-07-26T10:40:11.597Z,47.14
2018-07-26T10:41:11.594Z,47.39
2018-07-26T10:42:11.793Z,47.58
2018-07-26T10:43:13.565Z,47.07
2018-07-26T10:44:14.386Z,47.23
2018-07-26T10:45:12.917Z,47.37
2018-07-26T10:46:13.044Z,47.39
2018-07-26T10:47:12.841Z,47.46
2018-07-26T10:48:13.049Z,47.50
2018-07-26T10:49:13.259Z,47.13
2018-07-26T10:50:13.514Z,47.17
2018-07-26T10:51:13.669Z,47.36
2018-07-26T10:52:13.727Z,47.72
2018-07-26T10:53:13.934Z,47.68
2018-07-26T10:54:14.137Z,47.61
2018-07-26T10:55:14.334Z,47.62
2018-07-26T10:56:14.531Z,47.37
2018-07-26T10:57:14.730Z,47.25
2018-07-26T10:58:14.928Z,47.44
2018-07-26T10:59:15.118Z,47.41
2018-07-26T11:00:15.381Z,47.50
2018-07-26T11:01:15.529Z,47.59
2018-07-26T11:02:15.728Z,47.86
2018-07-26T11:03:15.905Z,48.00
2018-07-26T11:04:16.102Z,47.50
2018-07-26T11:05:16.300Z,47.56
2018-07-26T11:06:16.492Z,47.39
2018-07-26T11:07:16.688Z,47.36
2018-07-26T11:08:16.877Z,47.23
2018-07-26T11:09:17.071Z,47.64
2018-07-26T11:10:17.276Z,47.62
2018-07-26T11:11:17.462Z,47.99
2018-07-26T11:12:17.656Z,47.88
2018-07-26T11:13:17.851Z,47.87
2018-07-26T11:14:18.060Z,48.03
2018-07-26T11:15:18.322Z,47.86
2018-07-26T11:16:18.496Z,48.09
2018-07-26T11:17:18.671Z,48.19
2018-07-26T11:18:18.862Z,48.19
2018-07-26T11:19:19.053Z,48.12
2018-07-26T11:20:19.240Z,47.45
2018-07-26T11:21:19.439Z,46.94
2018-07-26T11:22:19.641Z,46.77
2018-07-26T11:23:19.827Z,46.50
2018-07-26T11:24:20.055Z,46.58
2018-07-26T11:25:20.235Z,46.86
2018-07-26T11:26:20.426Z,46.62
2018-07-26T11:27:20.622Z,46.84
2018-07-26T11:28:20.809Z,45.94
2018-07-26T11:29:20.996Z,46.43
2018-07-26T11:30:21.194Z,46.41
2018-07-26T11:31:21.403Z,46.22
2018-07-26T11:32:21.631Z,46.23
2018-07-26T11:33:21.763Z,46.17
2018-07-26T11:34:22.040Z,45.68
2018-07-26T11:35:22.167Z,45.22
2018-07-26T11:36:22.773Z,45.09
2018-07-26T11:37:22.821Z,44.71
2018-07-26T11:38:22.961Z,44.94
2018-07-26T11:39:22.970Z,44.65
2018-07-26T11:40:23.500Z,44.67
2018-07-26T11:41:23.400Z,44.67
2018-07-26T11:42:23.556Z,43.81
2018-07-26T11:43:23.752Z,43.89
2018-07-26T11:44:23.937Z,43.57
2018-07-26T11:45:24.131Z,43.58
2018-07-26T11:46:24.337Z,43.36
2018-07-26T11:47:24.524Z,43.30
2018-07-26T11:48:24.716Z,43.08
2018-07-26T11:49:24.912Z,42.72
2018-07-26T11:50:25.113Z,42.39
2018-07-26T11:51:25.550Z,42.29
2018-07-26T11:52:25.508Z,42.14
2018-07-26T11:53:25.693Z,42.07
2018-07-26T11:54:25.923Z,41.83
2018-07-26T11:55:26.075Z,41.66
2018-07-26T11:56:26.269Z,41.40
2018-07-26T11:57:26.465Z,41.37
2018-07-26T11:58:26.688Z,41.21
2018-07-26T11:59:26.878Z,40.92
2018-07-26T12:00:27.089Z,40.80
2018-07-26T12:01:27.278Z,40.68
2018-07-26T12:02:27.500Z,40.61
2018-07-26T12:03:27.672Z,40.49
2018-07-26T12:04:27.855Z,40.43
2018-07-26T12:05:28.050Z,40.47
2018-07-26T12:06:28.233Z,40.23
2018-07-26T12:07:28.416Z,40.18
2018-07-26T12:08:28.634Z,39.94
2018-07-26T12:09:28.838Z,39.71
2018-07-26T12:10:29.033Z,39.65
2018-07-26T12:11:29.224Z,39.56
2018-07-26T12:12:29.415Z,39.36
2018-07-26T12:13:29.601Z,39.46
2018-07-26T12:14:29.802Z,39.48
2018-07-26T12:15:29.996Z,39.59
2018-07-26T12:16:30.254Z,39.48
2018-07-26T12:17:30.612Z,39.51
2018-07-26T12:18:30.556Z,39.41
2018-07-26T12:19:30.775Z,39.25
2018-07-26T12:20:30.949Z,39.19
2018-07-26T12:21:31.133Z,39.18
2018-07-26T12:22:31.352Z,38.89
2018-07-26T12:23:31.578Z,38.80
2018-07-26T12:24:31.768Z,38.76
2018-07-26T12:25:31.963Z,38.69
2018-07-26T12:26:32.151Z,38.65
2018-07-26T12:27:32.425Z,38.77
2018-07-26T12:28:32.493Z,38.67
2018-07-26T12:29:32.683Z,38.50
2018-07-26T12:30:32.873Z,38.49
2018-07-26T12:31:33.065Z,38.05
2018-07-26T12:32:33.249Z,38.04
2018-07-26T12:33:33.456Z,37.96
2018-07-26T12:34:33.668Z,38.15
2018-07-26T12:35:33.854Z,38.02
2018-07-26T12:36:34.346Z,37.96
2018-07-26T12:37:34.569Z,38.01
2018-07-26T12:38:34.801Z,37.96
2018-07-26T12:39:35.785Z,37.83
2018-07-26T12:40:34.830Z,37.84
2018-07-26T12:41:35.058Z,37.59
2018-07-26T12:42:35.246Z,37.55
2018-07-26T12:43:35.460Z,37.51
2018-07-26T12:44:35.645Z,37.36
2018-07-26T12:45:35.922Z,37.30
2018-07-26T12:46:36.055Z,37.35
2018-07-26T12:47:36.259Z,37.36
2018-07-26T12:48:36.431Z,37.35
2018-07-26T12:49:36.646Z,37.44
2018-07-26T12:50:36.738Z,37.40
2018-07-26T12:51:36.917Z,37.59
2018-07-26T12:52:37.110Z,37.56
2018-07-26T12:53:37.333Z,37.65
2018-07-26T12:54:37.550Z,37.56